MyWebLog Booking Liste

 

Nyhetsmelding

Kopirett © 2014 Værnes Flyklubb. Alle rettigheter reservert.
Joomla! er fri programvare utgitt under GNU/GPL License.
 

METAR

ENVA 021820Z VRB02KT 9999 BKN053 15/12 Q1022 NOSIG RMK WIND 670FT 16006KT

TAF ENVA 0218/0318 VRB07KT 9999 FEW020 SCT040 BKN070